Time;durP1;ratioP1;P1;durP2;ratioP2;P2;SDS_P1;SDS_P2;PMS_P1;PMS_P2;Temp;Humidity;BMP_temperature;BMP_pressure;BME280_temperature;BME280_humidity;BME280_pressure;Samples;Min_cycle;Max_cycle;Signal;HPM_P1;HPM_P2
2022/06/22 00:01:40;;;;;;;7.17;6.53;;;15.10;93.60;;;;;;5118109;28;20966;-79
2022/06/22 00:04:18;;;;;;;8.80;7.40;;;15.10;94.00;;;;;;5117905;28;20446;-80
2022/06/22 00:06:52;;;;;;;9.20;7.63;;;15.10;93.80;;;;;;5117886;28;20483;-78
2022/06/22 00:09:25;;;;;;;8.30;7.50;;;15.00;93.80;;;;;;5117355;28;20986;-79
2022/06/22 00:11:54;;;;;;;8.33;7.10;;;15.00;93.90;;;;;;5118103;28;20431;-80
2022/06/22 00:14:28;;;;;;;9.13;8.17;;;15.00;94.00;;;;;;5118065;28;20454;-79
2022/06/22 00:16:57;;;;;;;9.27;8.13;;;15.00;94.10;;;;;;5136887;28;20486;-80
2022/06/22 00:19:32;;;;;;;9.03;8.20;;;14.90;94.20;;;;;;5118153;28;20435;-79
2022/06/22 00:22:03;;;;;;;8.23;7.53;;;14.90;94.30;;;;;;5138182;28;20442;-82
2022/06/22 00:24:42;;;;;;;9.17;8.10;;;14.90;94.30;;;;;;5119157;28;20946;-79
2022/06/22 00:27:30;;;;;;;9.67;8.70;;;14.80;94.40;;;;;;5136764;28;20481;-81
2022/06/22 00:30:16;;;;;;;10.43;8.30;;;14.80;94.50;;;;;;5119529;28;20461;-81
2022/06/22 00:33:14;;;;;;;10.50;9.20;;;14.80;94.60;;;;;;5119752;28;20780;-80
2022/06/22 00:35:49;;;;;;;11.40;8.00;;;14.80;94.70;;;;;;5118401;28;20468;-82
2022/06/22 00:38:20;;;;;;;8.80;7.90;;;14.70;94.70;;;;;;5136831;28;20536;-81
2022/06/22 00:40:53;;;;;;;10.43;8.70;;;14.70;94.80;;;;;;5136656;28;20438;-80
2022/06/22 00:43:23;;;;;;;9.90;9.10;;;14.70;94.80;;;;;;5117814;28;20435;-81
2022/06/22 00:45:51;;;;;;;8.87;8.07;;;14.60;94.80;;;;;;5118212;28;20454;-81
2022/06/22 00:48:29;;;;;;;9.50;8.50;;;14.60;94.90;;;;;;5136516;28;20562;-81
2022/06/22 00:51:02;;;;;;;8.40;7.70;;;14.60;95.00;;;;;;5136572;28;20429;-81
2022/06/22 00:53:34;;;;;;;8.47;7.63;;;14.50;95.00;;;;;;5117771;28;21023;-81
2022/06/22 00:56:10;;;;;;;8.60;7.80;;;14.50;95.00;;;;;;5117780;28;20430;-81
2022/06/22 00:58:47;;;;;;;10.30;9.27;;;14.50;95.30;;;;;;5118464;27;20515;-81
2022/06/22 01:01:21;;;;;;;8.73;7.93;;;14.50;95.10;;;;;;5121397;27;20552;-80
2022/06/22 01:03:56;;;;;;;8.13;7.30;;;14.40;95.10;;;;;;5140441;27;20465;-80
2022/06/22 01:06:33;;;;;;;9.70;8.50;;;14.40;95.10;;;;;;5121342;27;20445;-81
2022/06/22 01:09:08;;;;;;;8.67;7.90;;;14.40;95.20;;;;;;5140029;27;20482;-81
2022/06/22 01:14:52;;;;;;;8.30;7.60;;;14.30;95.20;;;;;;5079076;28;20468;-81
2022/06/22 01:17:25;;;;;;;9.17;8.27;;;14.20;95.20;;;;;;5095914;28;20531;-81
2022/06/22 01:19:59;;;;;;;9.23;8.40;;;14.20;95.20;;;;;;5103044;27;20529;-82
2022/06/22 01:22:52;;;;;;;8.73;8.03;;;14.20;95.30;;;;;;5139561;27;20815;-80
2022/06/22 01:25:44;;;;;;;7.93;7.13;;;14.10;95.30;;;;;;5120798;27;20538;-80
2022/06/22 01:28:15;;;;;;;9.40;8.50;;;14.10;95.40;;;;;;5120589;27;20466;-80
2022/06/22 01:30:47;;;;;;;8.70;6.83;;;14.10;95.50;;;;;;5139093;27;20436;-79
2022/06/22 01:33:23;;;;;;;8.43;7.63;;;14.00;95.40;;;;;;5120575;27;20447;-81
2022/06/22 01:35:54;;;;;;;9.40;8.40;;;14.00;95.50;;;;;;5119962;27;20438;-81
2022/06/22 01:38:25;;;;;;;9.47;8.57;;;14.00;95.50;;;;;;5120028;27;20467;-80
2022/06/22 01:41:19;;;;;;;10.10;8.17;;;13.90;95.60;;;;;;5119825;27;20529;-80
2022/06/22 01:43:54;;;;;;;8.27;7.40;;;13.90;95.70;;;;;;5138738;27;20529;-81
2022/06/22 01:46:34;;;;;;;11.97;8.60;;;13.80;96.00;;;;;;5138671;27;20822;-80
2022/06/22 01:49:08;;;;;;;8.77;7.97;;;13.80;95.80;;;;;;5119558;27;21013;-78
2022/06/22 01:51:44;;;;;;;11.17;8.40;;;13.80;95.80;;;;;;5138214;27;20440;-81
2022/06/22 01:54:20;;;;;;;8.30;7.60;;;13.70;95.80;;;;;;5138127;27;20490;-80
2022/06/22 01:56:54;;;;;;;8.30;7.40;;;13.70;95.90;;;;;;5119088;27;20470;-78
2022/06/22 01:59:29;;;;;;;9.00;8.20;;;13.70;96.00;;;;;;5137776;27;20418;-79
2022/06/22 02:02:02;;;;;;;8.57;7.70;;;13.60;96.00;;;;;;5119000;27;20454;-80
2022/06/22 02:04:35;;;;;;;9.40;8.50;;;13.60;96.10;;;;;;5119065;27;20446;-80
2022/06/22 02:10:35;;;;;;;8.60;7.80;;;13.50;96.30;;;;;;5138183;27;20490;-79
2022/06/22 02:13:09;;;;;;;8.70;7.83;;;13.50;96.30;;;;;;5119561;27;20923;-78
2022/06/22 02:15:51;;;;;;;8.50;7.73;;;13.40;96.20;;;;;;5119927;27;20867;-78
2022/06/22 02:18:27;;;;;;;8.03;7.30;;;13.40;96.30;;;;;;5118818;27;20979;-78
2022/06/22 02:20:55;;;;;;;9.20;8.30;;;13.40;96.30;;;;;;5137265;27;20505;-79
2022/06/22 02:23:28;;;;;;;8.73;8.00;;;13.30;96.30;;;;;;5118604;27;20916;-78
2022/06/22 02:26:13;;;;;;;8.23;7.37;;;13.30;96.70;;;;;;5137152;27;20449;-78
2022/06/22 02:28:43;;;;;;;7.40;6.80;;;13.30;96.40;;;;;;5118912;27;20474;-78
2022/06/22 02:31:13;;;;;;;7.30;6.60;;;13.20;96.40;;;;;;5118651;27;20449;-79
2022/06/22 02:33:44;;;;;;;8.83;8.03;;;13.20;96.50;;;;;;5119038;27;20443;-78
2022/06/22 02:36:14;;;;;;;8.80;8.00;;;13.20;96.50;;;;;;5118816;27;20466;-80
2022/06/22 02:38:44;;;;;;;9.63;8.47;;;13.10;96.50;;;;;;5118700;27;20470;-79
2022/06/22 02:46:48;;;;;;;8.13;7.23;;;13.00;96.60;;;;;;5137122;27;20438;-79
2022/06/22 02:49:24;;;;;;;8.30;7.60;;;13.00;96.60;;;;;;5118786;27;20454;-78
2022/06/22 02:51:54;;;;;;;7.93;7.27;;;13.00;96.70;;;;;;5118713;27;20427;-79
2022/06/22 02:54:30;;;;;;;8.57;7.73;;;13.00;96.80;;;;;;5118878;27;20453;-79
2022/06/22 02:57:06;;;;;;;8.93;8.13;;;12.90;96.90;;;;;;5118816;27;20458;-80
2022/06/22 02:59:35;;;;;;;8.60;8.00;;;12.90;96.90;;;;;;5137437;27;20418;-79
2022/06/22 03:02:05;;;;;;;9.60;8.70;;;12.90;96.90;;;;;;5118545;27;20458;-79
2022/06/22 03:04:34;;;;;;;9.70;8.90;;;12.80;97.00;;;;;;5119320;27;20450;-79
2022/06/22 03:07:03;;;;;;;10.20;9.30;;;12.80;97.10;;;;;;5137036;27;20455;-78
2022/06/22 03:09:31;;;;;;;12.00;10.97;;;12.80;97.20;;;;;;5119094;27;20477;-79
2022/06/22 03:12:01;;;;;;;11.03;10.00;;;12.70;97.30;;;;;;5137563;27;20434;-80
2022/06/22 03:14:32;;;;;;;11.37;10.37;;;12.70;97.40;;;;;;5119344;27;20476;-80
2022/06/22 03:17:05;;;;;;;10.80;9.83;;;12.60;97.50;;;;;;5119006;27;20570;-79
2022/06/22 03:19:39;;;;;;;11.27;10.37;;;12.60;97.60;;;;;;5118852;27;20438;-80
2022/06/22 03:22:16;;;;;;;11.37;10.10;;;12.60;97.70;;;;;;5118782;27;20994;-81
2022/06/22 03:24:49;;;;;;;11.90;10.67;;;12.50;97.80;;;;;;5137096;27;20419;-81
2022/06/22 03:27:28;;;;;;;12.00;10.90;;;12.50;97.90;;;;;;5118600;27;20556;-80
2022/06/22 03:29:59;;;;;;;12.43;11.30;;;12.50;98.00;;;;;;5136995;27;20478;-78
2022/06/22 03:32:35;;;;;;;12.60;11.50;;;12.50;98.10;;;;;;5118228;27;20503;-79
2022/06/22 03:35:09;;;;;;;12.53;11.23;;;12.40;98.20;;;;;;5118963;27;20445;-78
2022/06/22 03:37:42;;;;;;;13.10;11.80;;;12.40;98.30;;;;;;5142271;27;20446;-81
2022/06/22 03:40:16;;;;;;;13.17;11.97;;;12.40;98.40;;;;;;5119859;27;20453;-79
2022/06/22 03:42:48;;;;;;;11.97;10.80;;;12.40;98.50;;;;;;5119916;27;20438;-80
2022/06/22 03:45:22;;;;;;;13.00;11.73;;;12.30;98.80;;;;;;5119310;28;20464;-79
2022/06/22 03:47:57;;;;;;;15.00;13.43;;;12.30;98.70;;;;;;5119018;27;20483;-81
2022/06/22 03:50:34;;;;;;;13.70;12.27;;;12.30;98.80;;;;;;5119021;27;20515;-78
2022/06/22 03:53:10;;;;;;;14.57;13.27;;;12.20;99.00;;;;;;5137887;28;20446;-80
2022/06/22 03:55:41;;;;;;;14.20;12.80;;;12.20;99.10;;;;;;5137182;28;20441;-78
2022/06/22 03:58:12;;;;;;;13.97;12.80;;;12.20;99.20;;;;;;5118384;28;20476;-79
2022/06/22 04:00:42;;;;;;;13.70;12.50;;;12.20;99.30;;;;;;5118037;28;20525;-80
2022/06/22 04:03:14;;;;;;;15.13;13.67;;;12.20;99.40;;;;;;5118155;28;20457;-78
2022/06/22 04:05:45;;;;;;;14.37;13.10;;;12.20;99.50;;;;;;5117816;28;20439;-78
2022/06/22 04:08:20;;;;;;;16.50;14.93;;;12.20;99.60;;;;;;5117796;28;20902;-78
2022/06/22 04:10:53;;;;;;;16.83;15.30;;;12.30;99.80;;;;;;5136188;28;20935;-79
2022/06/22 04:13:26;;;;;;;17.10;14.77;;;12.20;99.90;;;;;;5135902;28;20446;-79
2022/06/22 04:16:00;;;;;;;19.17;17.40;;;12.20;99.90;;;;;;5117900;28;20434;-79
2022/06/22 04:18:34;;;;;;;19.50;17.63;;;12.20;99.90;;;;;;5118418;28;20540;-79
2022/06/22 04:21:05;;;;;;;19.67;17.77;;;12.30;99.90;;;;;;5119043;28;20439;-79
2022/06/22 04:23:38;;;;;;;19.37;17.50;;;12.30;99.90;;;;;;5119095;28;20450;-79
2022/06/22 04:26:12;;;;;;;19.03;17.27;;;12.30;99.90;;;;;;5118266;28;20450;-81
2022/06/22 04:28:44;;;;;;;16.80;15.30;;;12.30;99.90;;;;;;5118401;28;20458;-81
2022/06/22 04:31:20;;;;;;;17.63;16.03;;;12.30;99.90;;;;;;5119085;28;20458;-81
2022/06/22 04:33:53;;;;;;;17.63;16.03;;;12.30;99.90;;;;;;5118265;27;20469;-78
2022/06/22 04:36:26;;;;;;;19.00;17.30;;;12.30;99.90;;;;;;5122651;27;20492;-80
2022/06/22 04:38:58;;;;;;;17.27;15.70;;;12.30;99.90;;;;;;5121841;27;20470;-79
2022/06/22 04:41:31;;;;;;;17.30;15.60;;;12.30;99.90;;;;;;5122992;27;20998;-79
2022/06/22 04:44:04;;;;;;;17.40;15.90;;;12.30;99.90;;;;;;5142148;27;20447;-79
2022/06/22 04:46:35;;;;;;;17.50;15.80;;;12.30;99.90;;;;;;5121971;27;20446;-79
2022/06/22 04:49:18;;;;;;;18.27;16.57;;;12.30;99.90;;;;;;5122514;27;20457;-79
2022/06/22 04:51:50;;;;;;;17.97;16.23;;;12.30;99.90;;;;;;5121643;27;20466;-80
2022/06/22 04:54:24;;;;;;;18.63;17.03;;;12.40;99.90;;;;;;5120282;27;20430;-80
2022/06/22 04:56:54;;;;;;;17.77;16.27;;;12.40;99.90;;;;;;5141304;27;20460;-80
2022/06/22 04:59:24;;;;;;;17.57;15.93;;;12.40;99.90;;;;;;5121480;27;20507;-79
2022/06/22 05:01:56;;;;;;;17.10;15.67;;;12.40;99.90;;;;;;5121591;27;20503;-79
2022/06/22 05:04:29;;;;;;;18.67;16.97;;;12.40;99.90;;;;;;5121009;27;20438;-78
2022/06/22 05:07:03;;;;;;;19.80;17.67;;;12.50;99.90;;;;;;5141051;27;20458;-80
2022/06/22 05:09:35;;;;;;;17.80;16.30;;;12.50;99.90;;;;;;5121565;27;20425;-76
2022/06/22 05:12:09;;;;;;;17.57;15.93;;;12.50;99.90;;;;;;5138769;27;20407;-77
2022/06/22 05:14:37;;;;;;;17.73;15.97;;;12.60;99.90;;;;;;5138721;27;20517;-80
2022/06/22 05:17:14;;;;;;;17.93;16.20;;;12.60;99.90;;;;;;5121241;27;21203;-78
2022/06/22 05:19:49;;;;;;;20.00;18.10;;;12.70;99.90;;;;;;5120088;27;20431;-79
2022/06/22 05:22:18;;;;;;;17.67;15.90;;;12.70;99.90;;;;;;5120150;27;20465;-78
2022/06/22 05:24:51;;;;;;;18.30;16.50;;;12.80;99.90;;;;;;5139173;27;20427;-78
2022/06/22 05:27:25;;;;;;;18.30;16.47;;;12.90;99.90;;;;;;5138965;27;20540;-78
2022/06/22 05:29:58;;;;;;;19.23;17.37;;;13.00;99.90;;;;;;5138950;27;20422;-79
2022/06/22 05:32:30;;;;;;;17.40;15.90;;;13.00;99.90;;;;;;5121200;27;20481;-80
2022/06/22 05:35:02;;;;;;;19.37;17.47;;;13.10;99.90;;;;;;5121069;27;20537;-81
2022/06/22 05:37:35;;;;;;;21.97;16.60;;;13.30;99.90;;;;;;5139763;27;20466;-78
2022/06/22 05:40:05;;;;;;;17.97;16.20;;;13.50;99.90;;;;;;5140074;27;20422;-79
2022/06/22 05:42:34;;;;;;;18.33;16.40;;;13.70;99.90;;;;;;5121945;27;20446;-78
2022/06/22 05:45:03;;;;;;;18.27;15.30;;;13.90;99.90;;;;;;5123441;27;20454;-79
2022/06/22 05:47:33;;;;;;;16.33;14.73;;;14.20;99.90;;;;;;5140524;27;20459;-79
2022/06/22 05:50:12;;;;;;;16.50;14.90;;;14.40;99.90;;;;;;5122320;27;20460;-81
2022/06/22 05:52:46;;;;;;;15.43;14.10;;;14.70;99.90;;;;;;5141201;27;20442;-81
2022/06/22 05:55:21;;;;;;;14.90;13.67;;;15.00;99.90;;;;;;5123654;27;20455;-81
2022/06/22 05:57:57;;;;;;;14.70;13.30;;;15.40;99.90;;;;;;5122857;27;20470;-82
2022/06/22 06:00:32;;;;;;;14.83;13.47;;;15.70;99.90;;;;;;5140839;27;20811;-82
2022/06/22 06:03:14;;;;;;;13.20;11.90;;;16.00;99.90;;;;;;5139971;27;20454;-80
2022/06/22 06:05:49;;;;;;;11.60;10.60;;;16.30;99.90;;;;;;5121986;27;20435;-82
2022/06/22 06:08:24;;;;;;;12.83;11.53;;;16.60;99.90;;;;;;5139980;27;20470;-80
2022/06/22 06:10:52;;;;;;;10.20;9.30;;;17.00;99.90;;;;;;5139617;27;20425;-82
2022/06/22 06:13:28;;;;;;;11.43;9.70;;;17.30;99.90;;;;;;5121161;27;20450;-82
2022/06/22 06:16:00;;;;;;;9.43;8.53;;;17.50;99.90;;;;;;5122975;27;20416;-79
2022/06/22 06:18:37;;;;;;;8.87;7.97;;;17.80;99.90;;;;;;5123949;27;20477;-80
2022/06/22 06:21:11;;;;;;;9.33;8.37;;;18.10;99.90;;;;;;5122909;27;20432;-81
2022/06/22 06:23:46;;;;;;;9.73;7.73;;;18.40;99.90;;;;;;5120822;27;20485;-80
2022/06/22 06:29:14;;;;;;;11.40;8.23;;;18.90;99.90;;;;;;5121801;27;20486;-82
2022/06/22 06:31:57;;;;;;;12.50;8.43;;;19.30;99.90;;;;;;5122107;27;20557;-81
2022/06/22 06:34:32;;;;;;;12.70;8.43;;;19.60;99.90;;;;;;5121410;27;20443;-81
2022/06/22 06:37:07;;;;;;;11.17;8.40;;;19.80;99.90;;;;;;5120764;27;20466;-81
2022/06/22 06:39:39;;;;;;;10.53;8.70;;;20.10;99.90;;;;;;5139872;27;20405;-80
2022/06/22 06:42:21;;;;;;;8.00;7.20;;;20.40;99.90;;;;;;5121401;27;20492;-80
2022/06/22 06:44:52;;;;;;;9.40;7.30;;;20.60;99.90;;;;;;5140356;27;20434;-82
2022/06/22 06:47:28;;;;;;;13.30;7.53;;;20.80;99.90;;;;;;5122525;27;20540;-84
2022/06/22 06:50:02;;;;;;;10.07;7.57;;;21.00;99.90;;;;;;5121989;27;20449;-80
2022/06/22 06:52:40;;;;;;;12.90;8.87;;;21.20;99.90;;;;;;5122841;27;20546;-82
2022/06/22 06:55:19;;;;;;;11.87;7.80;;;21.40;99.90;;;;;;5121479;27;20441;-79
2022/06/22 06:57:59;;;;;;;11.97;7.57;;;21.60;99.80;;;;;;5121299;27;20527;-80
2022/06/22 07:00:30;;;;;;;10.93;8.07;;;21.80;99.50;;;;;;5140877;27;20415;-80
2022/06/22 07:03:02;;;;;;;11.93;7.73;;;22.00;99.30;;;;;;5119882;27;20829;-80
2022/06/22 07:05:31;;;;;;;8.20;6.70;;;22.10;99.10;;;;;;5120738;27;20435;-80
2022/06/22 07:08:07;;;;;;;13.00;6.70;;;22.30;98.90;;;;;;5138766;27;20470;-81
2022/06/22 07:10:59;;;;;;;9.30;7.43;;;22.50;98.40;;;;;;5138175;27;21076;-80
2022/06/22 07:13:32;;;;;;;13.47;7.10;;;22.60;97.90;;;;;;5138549;27;20907;-81
2022/06/22 07:16:06;;;;;;;10.17;7.13;;;22.60;97.40;;;;;;5119763;27;20485;-83
2022/06/22 07:18:38;;;;;;;9.60;6.93;;;22.70;97.20;;;;;;5138127;27;20461;-81
2022/06/22 07:21:15;;;;;;;9.93;6.67;;;22.70;96.90;;;;;;5119401;27;20439;-81
2022/06/22 07:23:48;;;;;;;8.97;6.40;;;22.70;96.70;;;;;;5119051;27;20888;-82
2022/06/22 07:26:24;;;;;;;11.87;6.60;;;22.80;96.70;;;;;;5119813;27;20457;-81
2022/06/22 07:29:01;;;;;;;12.33;7.17;;;23.00;96.60;;;;;;5119750;27;20457;-83
2022/06/22 07:31:36;;;;;;;9.33;6.80;;;23.10;96.30;;;;;;5138112;27;20943;-82
2022/06/22 07:34:08;;;;;;;14.87;8.97;;;23.20;96.00;;;;;;5119875;27;20458;-82
2022/06/22 07:36:41;;;;;;;11.93;7.30;;;23.30;95.70;;;;;;5120373;28;20462;-80
2022/06/22 07:39:15;;;;;;;14.03;7.17;;;23.30;95.40;;;;;;5119986;27;20521;-83
2022/06/22 07:41:44;;;;;;;11.50;6.93;;;23.40;95.40;;;;;;5138206;27;20418;-81
2022/06/22 07:44:17;;;;;;;9.27;5.53;;;23.40;95.40;;;;;;5138556;27;20529;-80
2022/06/22 07:46:50;;;;;;;10.33;5.17;;;23.50;94.80;;;;;;5138002;27;20480;-82
2022/06/22 07:49:24;;;;;;;9.57;6.00;;;23.50;94.60;;;;;;5119351;28;20444;-80
2022/06/22 07:51:54;;;;;;;8.57;4.93;;;23.60;94.40;;;;;;5138519;27;20482;-83
2022/06/22 07:54:29;;;;;;;9.57;5.20;;;23.70;94.20;;;;;;5119094;28;20468;-82
2022/06/22 07:57:06;;;;;;;7.20;5.30;;;23.80;93.70;;;;;;5136335;28;20552;-80
2022/06/22 07:59:40;;;;;;;6.87;5.03;;;23.80;93.60;;;;;;5137296;28;20426;-80
2022/06/22 08:02:15;;;;;;;7.67;5.07;;;23.80;93.40;;;;;;5118531;28;20450;-82
2022/06/22 08:04:49;;;;;;;6.43;4.03;;;23.80;93.00;;;;;;5138480;28;20834;-82
2022/06/22 08:07:21;;;;;;;3.83;3.43;;;23.80;92.60;;;;;;5119583;28;20499;-81
2022/06/22 08:09:59;;;;;;;4.43;3.80;;;23.80;92.40;;;;;;5121415;27;20789;-81
2022/06/22 08:12:33;;;;;;;6.90;4.30;;;23.90;92.20;;;;;;5141943;27;20545;-82
2022/06/22 08:15:05;;;;;;;4.37;3.67;;;24.00;92.00;;;;;;5123670;27;20470;-82
2022/06/22 08:17:42;;;;;;;4.03;3.17;;;24.00;91.60;;;;;;5141004;27;20462;-81
2022/06/22 08:20:13;;;;;;;4.60;3.27;;;24.10;91.20;;;;;;5122606;27;20441;-81
2022/06/22 08:22:44;;;;;;;4.20;3.43;;;24.20;91.00;;;;;;5123187;27;20434;-85
2022/06/22 08:25:16;;;;;;;4.70;4.03;;;24.20;90.60;;;;;;5123452;27;20449;-82
2022/06/22 08:27:45;;;;;;;5.80;4.10;;;24.20;90.60;;;;;;5123464;27;20469;-82
2022/06/22 08:30:15;;;;;;;6.20;5.33;;;24.30;90.60;;;;;;5122683;27;20436;-83
2022/06/22 08:32:47;;;;;;;5.73;4.23;;;24.30;90.50;;;;;;5122961;27;20462;-81
2022/06/22 08:35:21;;;;;;;5.63;3.73;;;24.30;90.50;;;;;;5142310;27;20454;-82
2022/06/22 08:37:58;;;;;;;6.87;3.90;;;24.50;90.50;;;;;;5141900;27;20544;-81
2022/06/22 08:40:37;;;;;;;8.33;4.20;;;24.60;90.40;;;;;;5123584;27;20445;-81
2022/06/22 08:43:17;;;;;;;7.57;4.80;;;24.70;90.10;;;;;;5124081;27;20539;-82
2022/06/22 08:46:05;;;;;;;5.83;5.00;;;24.70;89.80;;;;;;5124754;27;20785;-81
2022/06/22 08:48:50;;;;;;;5.17;4.50;;;24.70;89.90;;;;;;5141987;27;20468;-82
2022/06/22 08:51:54;;;;;;;6.60;4.33;;;24.80;90.00;;;;;;5123033;27;20966;-84
2022/06/22 08:54:54;;;;;;;6.87;5.23;;;24.80;89.20;;;;;;5142957;27;20453;-83
2022/06/22 08:57:38;;;;;;;6.40;4.00;;;24.80;89.20;;;;;;5124115;27;20562;-81
2022/06/22 09:00:13;;;;;;;5.47;4.60;;;24.90;88.80;;;;;;5143237;27;20525;-82
2022/06/22 09:03:27;;;;;;;5.67;3.83;;;24.90;88.20;;;;;;5141148;27;20469;-83
2022/06/22 09:06:06;;;;;;;7.33;4.63;;;24.90;87.70;;;;;;5104941;28;20844;-82
2022/06/22 09:09:02;;;;;;;4.90;3.93;;;24.90;87.60;;;;;;5141276;28;20492;-81
2022/06/22 09:11:34;;;;;;;4.70;4.00;;;24.80;87.40;;;;;;5121967;28;20450;-80
2022/06/22 09:14:26;;;;;;;7.00;3.63;;;24.70;87.00;;;;;;5121132;28;20459;-81
2022/06/22 09:17:09;;;;;;;5.37;4.20;;;24.70;86.40;;;;;;5121921;28;20519;-80
2022/06/22 09:20:07;;;;;;;6.20;3.20;;;24.70;86.40;;;;;;5139112;27;20908;-82
2022/06/22 09:22:53;;;;;;;7.50;3.90;;;24.70;86.70;;;;;;5139948;28;20410;-81
2022/06/22 09:25:28;;;;;;;6.17;3.90;;;24.80;86.60;;;;;;5140020;28;20433;-81
2022/06/22 09:28:01;;;;;;;5.17;4.30;;;24.80;86.40;;;;;;5121429;28;20477;-82
2022/06/22 09:30:58;;;;;;;5.07;3.73;;;24.80;86.40;;;;;;5121382;28;20442;-81
2022/06/22 09:33:48;;;;;;;6.20;4.50;;;24.90;86.20;;;;;;5120867;28;20484;-81
2022/06/22 09:36:33;;;;;;;6.33;5.37;;;24.90;86.50;;;;;;5120133;28;20466;-79
2022/06/22 09:39:30;;;;;;;6.70;4.50;;;25.00;85.80;;;;;;5120308;28;20438;-82
2022/06/22 09:42:17;;;;;;;8.37;5.23;;;25.00;86.50;;;;;;5139409;28;20458;-81
2022/06/22 09:45:11;;;;;;;7.50;5.60;;;25.10;86.90;;;;;;5120618;28;20939;-80
2022/06/22 09:48:02;;;;;;;5.73;5.10;;;25.10;86.40;;;;;;5120648;28;20466;-81
2022/06/22 09:51:08;;;;;;;5.40;4.90;;;25.10;86.20;;;;;;5120595;28;20959;-80
2022/06/22 09:56:19;;;;;;;7.50;5.43;;;25.10;85.70;;;;;;5139040;28;20451;-80
2022/06/22 09:57:17;;;;;;;6.63;4.80;;;25.00;85.90;;;;;;5120790;28;20470;-81
2022/06/22 10:00:01;;;;;;;7.17;5.40;;;25.00;85.60;;;;;;5120818;28;20935;-81
2022/06/22 10:03:07;;;;;;;6.87;4.77;;;25.00;85.60;;;;;;5097531;27;1191527;-80
2022/06/22 10:06:11;;;;;;;4.73;4.30;;;25.00;85.70;;;;;;5139375;27;20268;-81
2022/06/22 10:08:50;;;;;;;7.47;5.43;;;25.00;85.90;;;;;;5120592;27;21003;-81
2022/06/22 10:11:29;;;;;;;9.10;5.73;;;25.00;86.20;;;;;;5139562;27;20418;-81
2022/06/22 10:14:29;;;;;;;8.37;4.93;;;25.10;86.10;;;;;;5140065;27;20458;-81
2022/06/22 10:17:14;;;;;;;9.07;6.07;;;25.10;86.40;;;;;;5116081;27;20994;-80
2022/06/22 10:19:59;;;;;;;5.33;4.57;;;25.10;86.70;;;;;;5121342;27;20442;-80
2022/06/22 10:22:45;;;;;;;5.00;4.33;;;25.10;86.80;;;;;;5121687;27;20472;-81
2022/06/22 10:25:27;;;;;;;9.80;5.70;;;25.20;86.20;;;;;;5120916;27;20529;-82
2022/06/22 10:28:22;;;;;;;9.50;5.00;;;25.30;85.80;;;;;;5120715;27;21021;-81
2022/06/22 10:30:59;;;;;;;4.83;4.30;;;25.30;84.90;;;;;;5121206;27;20998;-82
2022/06/22 10:33:49;;;;;;;5.83;5.10;;;25.30;84.60;;;;;;5120234;27;20491;-79
2022/06/22 10:36:44;;;;;;;5.83;4.60;;;25.20;83.90;;;;;;5120462;27;20442;-82
2022/06/22 10:39:30;;;;;;;9.70;6.40;;;25.20;83.70;;;;;;5120370;27;20523;-81
2022/06/22 10:45:21;;;;;;;7.83;5.90;;;25.30;84.10;;;;;;5153626;27;20430;-83
2022/06/22 10:48:36;;;;;;;9.30;5.77;;;25.30;84.50;;;;;;5151242;27;20462;-82
2022/06/22 10:51:16;;;;;;;8.10;5.20;;;25.40;84.70;;;;;;5143400;27;20510;-79
2022/06/22 10:54:18;;;;;;;9.07;6.30;;;25.60;84.40;;;;;;5125570;27;20535;-80
2022/06/22 10:56:59;;;;;;;49.57;16.43;;;25.60;84.00;;;;;;5051108;27;20445;-80
2022/06/22 10:59:44;;;;;;;16.03;7.47;;;25.60;83.50;;;;;;5125253;27;20473;-80
2022/06/22 11:03:02;;;;;;;39.43;9.17;;;25.60;82.90;;;;;;5142417;27;20450;-79
2022/06/22 11:05:51;;;;;;;6.00;4.57;;;25.60;82.20;;;;;;5124050;27;20446;-79
2022/06/22 11:08:38;;;;;;;6.67;4.70;;;25.60;81.90;;;;;;5144174;27;20507;-80
2022/06/22 11:11:23;;;;;;;5.93;5.37;;;25.60;82.10;;;;;;5123006;27;20507;-79
2022/06/22 11:14:21;;;;;;;6.63;5.03;;;25.60;82.00;;;;;;5124153;27;20484;-80
2022/06/22 11:17:02;;;;;;;9.10;4.67;;;25.60;81.90;;;;;;5111015;27;20881;-80
2022/06/22 11:19:55;;;;;;;6.47;4.40;;;25.50;82.10;;;;;;5127599;27;20438;-80
2022/06/22 11:22:32;;;;;;;6.53;4.80;;;25.60;82.20;;;;;;5143898;27;20407;-80
2022/06/22 11:31:19;;;;;;;7.60;5.20;;;25.70;81.20;;;;;;5123641;27;20486;-80
2022/06/22 11:34:14;;;;;;;5.60;4.07;;;25.70;80.90;;;;;;5124815;27;20457;-80
2022/06/22 11:36:53;;;;;;;5.80;3.70;;;25.70;81.00;;;;;;5129706;27;20476;-80
2022/06/22 11:40:02;;;;;;;8.30;3.83;;;25.80;80.50;;;;;;5125502;27;20450;-81
2022/06/22 11:42:46;;;;;;;6.50;4.30;;;25.90;80.00;;;;;;5125224;27;20442;-81
2022/06/22 11:48:35;;;;;;;5.87;4.00;;;25.90;79.20;;;;;;5121703;28;20473;-81
2022/06/22 11:51:13;;;;;;;5.37;4.00;;;25.90;79.20;;;;;;5120200;28;20438;-81
2022/06/22 11:54:13;;;;;;;7.40;4.40;;;25.80;78.90;;;;;;5139720;27;20454;-80
2022/06/22 11:57:01;;;;;;;4.70;3.60;;;25.90;78.70;;;;;;5116451;28;20494;-80
2022/06/22 11:59:45;;;;;;;5.07;4.07;;;25.90;79.00;;;;;;5122589;28;20647;-79
2022/06/22 12:02:54;;;;;;;6.73;3.87;;;25.90;78.70;;;;;;5139783;28;20792;-79
2022/06/22 12:05:48;;;;;;;6.17;4.87;;;25.90;78.50;;;;;;5140305;28;20426;-78
2022/06/22 12:08:49;;;;;;;6.00;4.50;;;25.90;78.60;;;;;;5122456;28;20856;-78
2022/06/22 12:11:25;;;;;;;7.40;4.10;;;25.90;78.20;;;;;;5122830;28;20465;-79
2022/06/22 12:17:03;;;;;;;5.90;4.00;;;25.90;78.00;;;;;;5139419;28;20497;-78
2022/06/22 12:19:42;;;;;;;5.50;3.90;;;25.90;78.00;;;;;;5139258;28;20414;-80
2022/06/22 12:22:20;;;;;;;4.20;3.10;;;25.90;77.70;;;;;;5140244;28;20427;-79
2022/06/22 12:25:12;;;;;;;3.33;3.00;;;25.90;77.80;;;;;;5138667;28;20999;-76
2022/06/22 12:27:43;;;;;;;4.73;3.20;;;25.90;77.20;;;;;;5097297;28;20466;-76
2022/06/22 12:30:42;;;;;;;7.80;3.77;;;26.00;76.80;;;;;;5116184;28;20482;-77
2022/06/22 12:33:14;;;;;;;5.77;2.90;;;26.00;76.80;;;;;;5134687;28;20442;-74
2022/06/22 12:35:56;;;;;;;6.80;3.20;;;26.00;76.10;;;;;;5115819;28;20441;-75
2022/06/22 12:38:29;;;;;;;5.50;3.77;;;26.00;75.60;;;;;;5135179;28;20855;-75
2022/06/22 12:41:31;;;;;;;5.73;3.10;;;26.00;75.30;;;;;;5115851;28;20430;-75
2022/06/22 12:44:38;;;;;;;6.43;3.03;;;25.90;75.10;;;;;;5134794;28;20427;-75
2022/06/22 12:47:48;;;;;;;5.03;2.80;;;25.90;75.00;;;;;;5112054;28;20839;-76
2022/06/22 12:50:53;;;;;;;5.20;2.90;;;25.90;75.50;;;;;;5133919;28;20979;-75
2022/06/22 12:53:28;;;;;;;2.77;2.53;;;26.00;75.60;;;;;;5091532;28;20464;-76
2022/06/22 12:56:02;;;;;;;4.53;3.63;;;26.00;75.50;;;;;;5136302;27;20460;-78
2022/06/22 12:58:38;;;;;;;4.63;3.67;;;26.00;75.00;;;;;;5119839;27;20494;-78
2022/06/22 13:01:06;;;;;;;4.50;3.10;;;26.00;74.70;;;;;;5137980;27;20541;-75
2022/06/22 13:03:41;;;;;;;4.50;3.10;;;26.00;74.40;;;;;;5137649;27;20884;-76
2022/06/22 13:06:11;;;;;;;4.50;2.50;;;26.00;73.90;;;;;;5119763;27;20426;-78
2022/06/22 13:08:40;;;;;;;4.00;2.43;;;26.00;73.80;;;;;;5138165;27;21062;-77
2022/06/22 13:11:17;;;;;;;4.87;3.13;;;26.00;73.50;;;;;;5120254;27;20785;-76
2022/06/22 13:13:53;;;;;;;3.53;2.60;;;26.00;73.20;;;;;;5139079;27;20420;-81
2022/06/22 13:16:30;;;;;;;3.47;2.63;;;26.00;73.10;;;;;;5153387;27;20436;-84
2022/06/22 13:19:13;;;;;;;3.07;2.70;;;26.00;72.90;;;;;;5136051;27;20470;-83
2022/06/22 13:21:54;;;;;;;3.90;3.10;;;26.10;73.10;;;;;;5152879;27;20460;-82
2022/06/22 13:24:30;;;;;;;4.40;3.00;;;26.10;73.20;;;;;;5135420;27;20442;-82
2022/06/22 13:27:17;;;;;;;4.07;3.17;;;26.00;73.20;;;;;;5153635;27;20525;-82
2022/06/22 13:29:50;;;;;;;4.40;3.60;;;26.10;73.20;;;;;;5134346;27;20438;-84
2022/06/22 13:32:20;;;;;;;3.63;3.10;;;26.00;73.40;;;;;;5134822;27;20442;-82
2022/06/22 13:34:55;;;;;;;5.10;3.63;;;26.10;73.80;;;;;;5152962;27;20466;-81
2022/06/22 13:37:35;;;;;;;5.03;4.00;;;26.00;73.70;;;;;;5133137;27;20466;-82
2022/06/22 13:40:26;;;;;;;3.97;2.97;;;26.10;74.40;;;;;;5135355;27;20468;-81
2022/06/22 13:43:17;;;;;;;4.40;3.40;;;26.10;74.40;;;;;;5134378;27;20437;-82
2022/06/22 13:45:55;;;;;;;6.23;3.80;;;26.00;74.10;;;;;;5147726;27;20532;-83
2022/06/22 13:48:29;;;;;;;3.93;3.40;;;26.00;74.00;;;;;;5132752;27;20466;-82
2022/06/22 13:51:20;;;;;;;5.13;3.40;;;26.00;74.00;;;;;;5129194;27;20442;-81
2022/06/22 13:54:16;;;;;;;4.10;3.50;;;26.00;74.20;;;;;;5132375;27;20460;-84
2022/06/22 13:56:57;;;;;;;4.00;3.57;;;26.00;74.10;;;;;;5132761;27;20923;-81
2022/06/22 13:59:34;;;;;;;3.63;3.10;;;26.00;74.30;;;;;;5132602;27;20468;-83
2022/06/22 14:02:26;;;;;;;4.87;3.50;;;26.00;74.50;;;;;;5133749;27;20460;-82
2022/06/22 14:04:59;;;;;;;9.53;3.30;;;26.10;74.70;;;;;;5133726;27;20438;-81
2022/06/22 14:07:32;;;;;;;5.70;3.67;;;26.10;74.90;;;;;;5132638;27;20470;-82
2022/06/22 14:10:09;;;;;;;5.03;3.53;;;26.10;75.00;;;;;;5132920;27;20800;-79